sensor_id;sensor_type;location;lat;lon;timestamp;temperature;humidity
15926;DHT22;8062;53.882;10.642;2023-05-23T00:00:34;15.20;99.90
15926;DHT22;8062;53.882;10.642;2023-05-23T00:01:55;15.10;99.90
15926;DHT22;8062;53.882;10.642;2023-05-23T00:03:16;15.20;99.90
15926;DHT22;8062;53.882;10.642;2023-05-23T00:04:36;15.20;99.90
15926;DHT22;8062;53.882;10.642;2023-05-23T00:05:56;15.20;99.90
15926;DHT22;8062;53.882;10.642;2023-05-23T00:07:16;15.20;99.90
15926;DHT22;8062;53.882;10.642;2023-05-23T00:08:36;15.20;99.90
15926;DHT22;8062;53.882;10.642;2023-05-23T00:09:55;15.20;99.90
15926;DHT22;8062;53.882;10.642;2023-05-23T00:11:15;15.10;99.90
15926;DHT22;8062;53.882;10.642;2023-05-23T00:12:35;15.10;99.90
15926;DHT22;8062;53.882;10.642;2023-05-23T00:13:55;15.10;99.90
15926;DHT22;8062;53.882;10.642;2023-05-23T00:15:19;15.10;99.90
15926;DHT22;8062;53.882;10.642;2023-05-23T00:16:40;15.10;99.90
15926;DHT22;8062;53.882;10.642;2023-05-23T00:18:00;15.00;99.90
15926;DHT22;8062;53.882;10.642;2023-05-23T00:19:19;15.10;99.90
15926;DHT22;8062;53.882;10.642;2023-05-23T00:20:40;15.10;99.90
15926;DHT22;8062;53.882;10.642;2023-05-23T00:22:00;15.10;99.90
15926;DHT22;8062;53.882;10.642;2023-05-23T00:23:21;15.00;99.90
15926;DHT22;8062;53.882;10.642;2023-05-23T00:24:43;15.00;99.90
15926;DHT22;8062;53.882;10.642;2023-05-23T00:26:03;15.00;99.90
15926;DHT22;8062;53.882;10.642;2023-05-23T00:27:23;15.00;99.90
15926;DHT22;8062;53.882;10.642;2023-05-23T00:28:43;15.00;99.90
15926;DHT22;8062;53.882;10.642;2023-05-23T00:30:03;15.00;99.90
15926;DHT22;8062;53.882;10.642;2023-05-23T00:31:23;15.00;99.90
15926;DHT22;8062;53.882;10.642;2023-05-23T00:32:42;15.00;99.90
15926;DHT22;8062;53.882;10.642;2023-05-23T00:34:02;15.10;99.90
15926;DHT22;8062;53.882;10.642;2023-05-23T00:35:22;15.10;99.90
15926;DHT22;8062;53.882;10.642;2023-05-23T00:36:42;15.10;99.90
15926;DHT22;8062;53.882;10.642;2023-05-23T00:38:02;15.00;99.90
15926;DHT22;8062;53.882;10.642;2023-05-23T00:39:22;15.10;99.90
15926;DHT22;8062;53.882;10.642;2023-05-23T00:40:41;15.00;99.90
15926;DHT22;8062;53.882;10.642;2023-05-23T00:42:04;15.00;99.90
15926;DHT22;8062;53.882;10.642;2023-05-23T00:43:26;15.00;99.90
15926;DHT22;8062;53.882;10.642;2023-05-23T00:44:46;14.90;99.90
15926;DHT22;8062;53.882;10.642;2023-05-23T00:46:06;15.00;99.90
15926;DHT22;8062;53.882;10.642;2023-05-23T00:47:26;15.00;99.90
15926;DHT22;8062;53.882;10.642;2023-05-23T00:48:46;15.00;99.90
15926;DHT22;8062;53.882;10.642;2023-05-23T00:50:11;15.00;99.90
15926;DHT22;8062;53.882;10.642;2023-05-23T00:51:33;15.10;99.90
15926;DHT22;8062;53.882;10.642;2023-05-23T00:52:52;15.10;99.90
15926;DHT22;8062;53.882;10.642;2023-05-23T00:54:12;15.10;99.90
15926;DHT22;8062;53.882;10.642;2023-05-23T00:55:33;15.00;99.90
15926;DHT22;8062;53.882;10.642;2023-05-23T00:56:54;15.00;99.90
15926;DHT22;8062;53.882;10.642;2023-05-23T00:58:14;15.00;99.90
15926;DHT22;8062;53.882;10.642;2023-05-23T00:59:35;15.00;99.90
15926;DHT22;8062;53.882;10.642;2023-05-23T01:00:56;15.00;99.90
15926;DHT22;8062;53.882;10.642;2023-05-23T01:02:16;15.00;99.90
15926;DHT22;8062;53.882;10.642;2023-05-23T01:03:35;15.00;99.90
15926;DHT22;8062;53.882;10.642;2023-05-23T01:04:55;15.00;99.90
15926;DHT22;8062;53.882;10.642;2023-05-23T01:06:15;15.00;99.90
15926;DHT22;8062;53.882;10.642;2023-05-23T01:07:36;15.10;99.90
15926;DHT22;8062;53.882;10.642;2023-05-23T01:08:55;15.10;99.90
15926;DHT22;8062;53.882;10.642;2023-05-23T01:10:20;15.10;99.90
15926;DHT22;8062;53.882;10.642;2023-05-23T01:11:52;15.10;99.90
15926;DHT22;8062;53.882;10.642;2023-05-23T01:13:42;15.10;99.90
15926;DHT22;8062;53.882;10.642;2023-05-23T01:15:11;15.10;99.90
15926;DHT22;8062;53.882;10.642;2023-05-23T01:16:49;15.10;99.90
15926;DHT22;8062;53.882;10.642;2023-05-23T01:18:16;15.20;99.90
15926;DHT22;8062;53.882;10.642;2023-05-23T01:20:14;15.10;99.90
15926;DHT22;8062;53.882;10.642;2023-05-23T01:21:35;15.00;99.90
15926;DHT22;8062;53.882;10.642;2023-05-23T01:24:42;15.00;99.90
15926;DHT22;8062;53.882;10.642;2023-05-23T01:27:47;15.10;99.90
15926;DHT22;8062;53.882;10.642;2023-05-23T01:29:12;15.10;99.90
15926;DHT22;8062;53.882;10.642;2023-05-23T01:30:38;15.10;99.90
15926;DHT22;8062;53.882;10.642;2023-05-23T01:31:59;15.00;99.90
15926;DHT22;8062;53.882;10.642;2023-05-23T01:33:19;15.00;99.90
15926;DHT22;8062;53.882;10.642;2023-05-23T01:34:41;15.00;99.90
15926;DHT22;8062;53.882;10.642;2023-05-23T01:36:02;15.00;99.90
15926;DHT22;8062;53.882;10.642;2023-05-23T01:37:22;15.00;99.90
15926;DHT22;8062;53.882;10.642;2023-05-23T01:38:41;15.00;99.90
15926;DHT22;8062;53.882;10.642;2023-05-23T01:40:01;15.00;99.90
15926;DHT22;8062;53.882;10.642;2023-05-23T01:41:20;14.90;99.90
15926;DHT22;8062;53.882;10.642;2023-05-23T01:42:40;14.90;99.90
15926;DHT22;8062;53.882;10.642;2023-05-23T01:44:00;14.90;99.90
15926;DHT22;8062;53.882;10.642;2023-05-23T01:45:20;14.80;99.90
15926;DHT22;8062;53.882;10.642;2023-05-23T01:46:40;14.80;99.90
15926;DHT22;8062;53.882;10.642;2023-05-23T01:48:01;14.80;99.90
15926;DHT22;8062;53.882;10.642;2023-05-23T01:49:23;14.70;99.90
15926;DHT22;8062;53.882;10.642;2023-05-23T01:50:45;14.70;99.90
15926;DHT22;8062;53.882;10.642;2023-05-23T01:52:05;14.70;99.90
15926;DHT22;8062;53.882;10.642;2023-05-23T01:53:29;14.60;99.90
15926;DHT22;8062;53.882;10.642;2023-05-23T01:54:50;14.60;99.90
15926;DHT22;8062;53.882;10.642;2023-05-23T01:56:12;14.50;99.90
15926;DHT22;8062;53.882;10.642;2023-05-23T01:57:32;14.50;99.90
15926;DHT22;8062;53.882;10.642;2023-05-23T01:58:52;14.50;99.90
15926;DHT22;8062;53.882;10.642;2023-05-23T02:00:13;14.50;99.90
15926;DHT22;8062;53.882;10.642;2023-05-23T02:01:33;14.40;99.90
15926;DHT22;8062;53.882;10.642;2023-05-23T02:02:53;14.30;99.90
15926;DHT22;8062;53.882;10.642;2023-05-23T02:04:12;14.30;99.90
15926;DHT22;8062;53.882;10.642;2023-05-23T02:05:32;14.30;99.90
15926;DHT22;8062;53.882;10.642;2023-05-23T02:06:54;14.20;99.90
15926;DHT22;8062;53.882;10.642;2023-05-23T02:08:14;14.20;99.90
15926;DHT22;8062;53.882;10.642;2023-05-23T02:09:33;14.10;99.90
15926;DHT22;8062;53.882;10.642;2023-05-23T02:10:53;14.10;99.90
15926;DHT22;8062;53.882;10.642;2023-05-23T02:12:13;14.10;99.90
15926;DHT22;8062;53.882;10.642;2023-05-23T02:13:32;14.00;99.90
15926;DHT22;8062;53.882;10.642;2023-05-23T02:14:53;14.00;99.90
15926;DHT22;8062;53.882;10.642;2023-05-23T02:16:13;14.00;99.90
15926;DHT22;8062;53.882;10.642;2023-05-23T02:17:33;14.00;99.90
15926;DHT22;8062;53.882;10.642;2023-05-23T02:18:52;13.90;99.90
15926;DHT22;8062;53.882;10.642;2023-05-23T02:20:14;13.90;99.90
15926;DHT22;8062;53.882;10.642;2023-05-23T02:21:33;13.90;99.90
15926;DHT22;8062;53.882;10.642;2023-05-23T02:22:53;13.90;99.90
15926;DHT22;8062;53.882;10.642;2023-05-23T02:24:13;13.80;99.90
15926;DHT22;8062;53.882;10.642;2023-05-23T02:25:32;13.80;99.90
15926;DHT22;8062;53.882;10.642;2023-05-23T02:26:52;13.80;99.90
15926;DHT22;8062;53.882;10.642;2023-05-23T02:28:11;13.80;99.90
15926;DHT22;8062;53.882;10.642;2023-05-23T02:29:31;13.80;99.90
15926;DHT22;8062;53.882;10.642;2023-05-23T02:30:51;13.80;99.90
15926;DHT22;8062;53.882;10.642;2023-05-23T02:32:11;13.70;99.90
15926;DHT22;8062;53.882;10.642;2023-05-23T02:33:31;13.70;99.90
15926;DHT22;8062;53.882;10.642;2023-05-23T02:34:51;13.70;99.90
15926;DHT22;8062;53.882;10.642;2023-05-23T02:36:10;13.70;99.90
15926;DHT22;8062;53.882;10.642;2023-05-23T02:37:30;13.70;99.90
15926;DHT22;8062;53.882;10.642;2023-05-23T02:38:50;13.70;99.90
15926;DHT22;8062;53.882;10.642;2023-05-23T02:40:10;13.60;99.90
15926;DHT22;8062;53.882;10.642;2023-05-23T02:41:30;13.60;99.90
15926;DHT22;8062;53.882;10.642;2023-05-23T02:42:50;13.50;99.90
15926;DHT22;8062;53.882;10.642;2023-05-23T02:44:10;13.50;99.90
15926;DHT22;8062;53.882;10.642;2023-05-23T02:45:29;13.50;99.90
15926;DHT22;8062;53.882;10.642;2023-05-23T02:46:49;13.50;99.90
15926;DHT22;8062;53.882;10.642;2023-05-23T02:48:11;13.50;99.90
15926;DHT22;8062;53.882;10.642;2023-05-23T02:49:31;13.50;99.90
15926;DHT22;8062;53.882;10.642;2023-05-23T02:50:50;13.50;99.90
15926;DHT22;8062;53.882;10.642;2023-05-23T02:52:10;13.50;99.90
15926;DHT22;8062;53.882;10.642;2023-05-23T02:53:30;13.40;99.90
15926;DHT22;8062;53.882;10.642;2023-05-23T02:54:50;13.50;99.90
15926;DHT22;8062;53.882;10.642;2023-05-23T02:56:10;13.40;99.90
15926;DHT22;8062;53.882;10.642;2023-05-23T02:57:30;13.40;99.90
15926;DHT22;8062;53.882;10.642;2023-05-23T02:58:49;13.40;99.90
15926;DHT22;8062;53.882;10.642;2023-05-23T03:00:09;13.40;99.90
15926;DHT22;8062;53.882;10.642;2023-05-23T03:01:31;13.50;99.90
15926;DHT22;8062;53.882;10.642;2023-05-23T03:02:50;13.50;99.90
15926;DHT22;8062;53.882;10.642;2023-05-23T03:04:10;13.50;99.90
15926;DHT22;8062;53.882;10.642;2023-05-23T03:05:32;13.50;99.90
15926;DHT22;8062;53.882;10.642;2023-05-23T03:06:52;13.50;99.90
15926;DHT22;8062;53.882;10.642;2023-05-23T03:08:12;13.50;99.90
15926;DHT22;8062;53.882;10.642;2023-05-23T03:09:32;13.60;99.90
15926;DHT22;8062;53.882;10.642;2023-05-23T03:10:52;13.60;99.90
15926;DHT22;8062;53.882;10.642;2023-05-23T03:12:11;13.70;99.90
15926;DHT22;8062;53.882;10.642;2023-05-23T03:13:31;13.70;99.90
15926;DHT22;8062;53.882;10.642;2023-05-23T03:14:50;13.70;99.90
15926;DHT22;8062;53.882;10.642;2023-05-23T03:16:10;13.70;99.90
15926;DHT22;8062;53.882;10.642;2023-05-23T03:17:31;13.80;99.90
15926;DHT22;8062;53.882;10.642;2023-05-23T03:18:50;13.80;99.90
15926;DHT22;8062;53.882;10.642;2023-05-23T03:20:10;13.80;99.90
15926;DHT22;8062;53.882;10.642;2023-05-23T03:21:31;13.80;99.90
15926;DHT22;8062;53.882;10.642;2023-05-23T03:22:51;13.90;99.90
15926;DHT22;8062;53.882;10.642;2023-05-23T03:24:11;13.90;99.90
15926;DHT22;8062;53.882;10.642;2023-05-23T03:25:30;13.90;99.90
15926;DHT22;8062;53.882;10.642;2023-05-23T03:26:50;14.00;99.90
15926;DHT22;8062;53.882;10.642;2023-05-23T03:28:10;14.00;99.90
15926;DHT22;8062;53.882;10.642;2023-05-23T03:29:30;14.10;99.90
15926;DHT22;8062;53.882;10.642;2023-05-23T03:30:50;14.10;99.90
15926;DHT22;8062;53.882;10.642;2023-05-23T03:32:10;14.10;99.90
15926;DHT22;8062;53.882;10.642;2023-05-23T03:33:30;14.10;99.90
15926;DHT22;8062;53.882;10.642;2023-05-23T03:34:49;14.10;99.90
15926;DHT22;8062;53.882;10.642;2023-05-23T03:36:09;14.10;99.90
15926;DHT22;8062;53.882;10.642;2023-05-23T03:37:28;14.10;99.90
15926;DHT22;8062;53.882;10.642;2023-05-23T03:38:48;14.10;99.90
15926;DHT22;8062;53.882;10.642;2023-05-23T03:40:08;14.00;99.90
15926;DHT22;8062;53.882;10.642;2023-05-23T03:41:28;14.00;99.90
15926;DHT22;8062;53.882;10.642;2023-05-23T03:42:48;14.10;99.90
15926;DHT22;8062;53.882;10.642;2023-05-23T03:44:19;14.10;99.90
15926;DHT22;8062;53.882;10.642;2023-05-23T03:45:39;14.10;99.90
15926;DHT22;8062;53.882;10.642;2023-05-23T03:47:04;14.20;99.90
15926;DHT22;8062;53.882;10.642;2023-05-23T03:48:24;14.20;99.90
15926;DHT22;8062;53.882;10.642;2023-05-23T03:49:44;14.20;99.90
15926;DHT22;8062;53.882;10.642;2023-05-23T03:51:04;14.20;99.90
15926;DHT22;8062;53.882;10.642;2023-05-23T03:52:24;14.20;99.90
15926;DHT22;8062;53.882;10.642;2023-05-23T03:53:44;14.20;99.90
15926;DHT22;8062;53.882;10.642;2023-05-23T03:55:04;14.20;99.90
15926;DHT22;8062;53.882;10.642;2023-05-23T03:56:24;14.20;99.90
15926;DHT22;8062;53.882;10.642;2023-05-23T03:57:44;14.30;99.90
15926;DHT22;8062;53.882;10.642;2023-05-23T03:59:04;14.30;99.90
15926;DHT22;8062;53.882;10.642;2023-05-23T04:00:23;14.30;99.90
15926;DHT22;8062;53.882;10.642;2023-05-23T04:01:43;14.30;99.90
15926;DHT22;8062;53.882;10.642;2023-05-23T04:03:03;14.30;99.90
15926;DHT22;8062;53.882;10.642;2023-05-23T04:04:23;14.30;99.90
15926;DHT22;8062;53.882;10.642;2023-05-23T04:05:43;14.30;99.90
15926;DHT22;8062;53.882;10.642;2023-05-23T04:07:03;14.40;99.90
15926;DHT22;8062;53.882;10.642;2023-05-23T04:08:24;14.40;99.90
15926;DHT22;8062;53.882;10.642;2023-05-23T04:09:44;14.40;99.90
15926;DHT22;8062;53.882;10.642;2023-05-23T04:11:05;14.50;99.90
15926;DHT22;8062;53.882;10.642;2023-05-23T04:12:28;14.50;99.90
15926;DHT22;8062;53.882;10.642;2023-05-23T04:13:51;14.60;99.90
15926;DHT22;8062;53.882;10.642;2023-05-23T04:15:11;14.60;99.90
15926;DHT22;8062;53.882;10.642;2023-05-23T04:16:42;14.70;99.90
15926;DHT22;8062;53.882;10.642;2023-05-23T04:18:03;14.70;99.90
15926;DHT22;8062;53.882;10.642;2023-05-23T04:19:23;14.80;99.90
15926;DHT22;8062;53.882;10.642;2023-05-23T04:20:45;14.80;99.90
15926;DHT22;8062;53.882;10.642;2023-05-23T04:22:05;14.90;99.90
15926;DHT22;8062;53.882;10.642;2023-05-23T04:23:24;14.90;99.90
15926;DHT22;8062;53.882;10.642;2023-05-23T04:24:46;15.00;99.90
15926;DHT22;8062;53.882;10.642;2023-05-23T04:26:06;15.00;99.90
15926;DHT22;8062;53.882;10.642;2023-05-23T04:27:28;15.00;99.90
15926;DHT22;8062;53.882;10.642;2023-05-23T04:28:49;15.10;99.90
15926;DHT22;8062;53.882;10.642;2023-05-23T04:30:13;15.10;99.90
15926;DHT22;8062;53.882;10.642;2023-05-23T04:31:35;15.20;99.90
15926;DHT22;8062;53.882;10.642;2023-05-23T04:32:55;15.30;99.90
15926;DHT22;8062;53.882;10.642;2023-05-23T04:34:20;15.30;99.90
15926;DHT22;8062;53.882;10.642;2023-05-23T04:35:40;15.40;99.90
15926;DHT22;8062;53.882;10.642;2023-05-23T04:37:00;15.40;99.90
15926;DHT22;8062;53.882;10.642;2023-05-23T04:38:23;15.40;99.90
15926;DHT22;8062;53.882;10.642;2023-05-23T04:39:43;15.40;99.90
15926;DHT22;8062;53.882;10.642;2023-05-23T04:41:29;15.50;99.90
15926;DHT22;8062;53.882;10.642;2023-05-23T04:43:25;15.50;99.90
15926;DHT22;8062;53.882;10.642;2023-05-23T04:45:06;15.50;99.90
15926;DHT22;8062;53.882;10.642;2023-05-23T04:46:52;15.50;99.90
15926;DHT22;8062;53.882;10.642;2023-05-23T04:48:15;15.50;99.90
15926;DHT22;8062;53.882;10.642;2023-05-23T04:49:37;15.50;99.90
15926;DHT22;8062;53.882;10.642;2023-05-23T04:50:58;15.60;99.90
15926;DHT22;8062;53.882;10.642;2023-05-23T04:52:21;15.60;99.90
15926;DHT22;8062;53.882;10.642;2023-05-23T04:53:40;15.60;99.90
15926;DHT22;8062;53.882;10.642;2023-05-23T04:55:02;15.60;99.90
15926;DHT22;8062;53.882;10.642;2023-05-23T04:56:22;15.60;99.90
15926;DHT22;8062;53.882;10.642;2023-05-23T04:57:46;15.60;99.90
15926;DHT22;8062;53.882;10.642;2023-05-23T04:59:06;15.70;99.90
15926;DHT22;8062;53.882;10.642;2023-05-23T05:00:27;15.70;99.90
15926;DHT22;8062;53.882;10.642;2023-05-23T05:01:48;15.80;99.90
15926;DHT22;8062;53.882;10.642;2023-05-23T05:03:08;15.90;99.90
15926;DHT22;8062;53.882;10.642;2023-05-23T05:04:34;16.00;99.90
15926;DHT22;8062;53.882;10.642;2023-05-23T05:05:54;16.10;99.90
15926;DHT22;8062;53.882;10.642;2023-05-23T05:07:14;16.10;99.90
15926;DHT22;8062;53.882;10.642;2023-05-23T05:08:34;16.10;99.90
15926;DHT22;8062;53.882;10.642;2023-05-23T05:09:55;16.10;99.90
15926;DHT22;8062;53.882;10.642;2023-05-23T05:11:14;16.10;99.90
15926;DHT22;8062;53.882;10.642;2023-05-23T05:12:34;16.00;99.90
15926;DHT22;8062;53.882;10.642;2023-05-23T05:13:53;16.00;99.90
15926;DHT22;8062;53.882;10.642;2023-05-23T05:15:14;16.00;99.90
15926;DHT22;8062;53.882;10.642;2023-05-23T05:16:37;16.00;99.90
15926;DHT22;8062;53.882;10.642;2023-05-23T05:17:57;16.00;99.90
15926;DHT22;8062;53.882;10.642;2023-05-23T05:19:16;15.90;99.90
15926;DHT22;8062;53.882;10.642;2023-05-23T05:20:36;16.00;99.90
15926;DHT22;8062;53.882;10.642;2023-05-23T05:21:55;15.90;99.90
15926;DHT22;8062;53.882;10.642;2023-05-23T05:23:15;15.80;99.90
15926;DHT22;8062;53.882;10.642;2023-05-23T05:24:35;15.70;99.90
15926;DHT22;8062;53.882;10.642;2023-05-23T05:25:55;15.70;99.90
15926;DHT22;8062;53.882;10.642;2023-05-23T05:27:15;15.60;99.90
15926;DHT22;8062;53.882;10.642;2023-05-23T05:28:35;15.60;99.90
15926;DHT22;8062;53.882;10.642;2023-05-23T05:29:55;15.60;99.90
15926;DHT22;8062;53.882;10.642;2023-05-23T05:31:17;15.50;99.90
15926;DHT22;8062;53.882;10.642;2023-05-23T05:32:37;15.50;99.90
15926;DHT22;8062;53.882;10.642;2023-05-23T05:33:57;15.50;99.90
15926;DHT22;8062;53.882;10.642;2023-05-23T05:35:16;15.50;99.90
15926;DHT22;8062;53.882;10.642;2023-05-23T05:36:38;15.40;99.90
15926;DHT22;8062;53.882;10.642;2023-05-23T05:38:03;15.40;99.90
15926;DHT22;8062;53.882;10.642;2023-05-23T05:39:23;15.30;99.90
15926;DHT22;8062;53.882;10.642;2023-05-23T05:40:44;15.30;99.90
15926;DHT22;8062;53.882;10.642;2023-05-23T05:42:04;15.30;99.90
15926;DHT22;8062;53.882;10.642;2023-05-23T05:43:25;15.20;99.90
15926;DHT22;8062;53.882;10.642;2023-05-23T05:44:45;15.20;99.90
15926;DHT22;8062;53.882;10.642;2023-05-23T05:46:05;15.20;99.90
15926;DHT22;8062;53.882;10.642;2023-05-23T05:47:25;15.10;99.90
15926;DHT22;8062;53.882;10.642;2023-05-23T05:48:45;15.10;99.90
15926;DHT22;8062;53.882;10.642;2023-05-23T05:50:06;15.10;99.90
15926;DHT22;8062;53.882;10.642;2023-05-23T05:51:27;15.10;99.90
15926;DHT22;8062;53.882;10.642;2023-05-23T05:52:47;15.10;99.90
15926;DHT22;8062;53.882;10.642;2023-05-23T05:54:07;15.00;99.90
15926;DHT22;8062;53.882;10.642;2023-05-23T05:55:27;15.00;99.90
15926;DHT22;8062;53.882;10.642;2023-05-23T05:56:48;15.00;99.90
15926;DHT22;8062;53.882;10.642;2023-05-23T05:58:08;15.00;99.90
15926;DHT22;8062;53.882;10.642;2023-05-23T05:59:50;15.00;99.90
15926;DHT22;8062;53.882;10.642;2023-05-23T06:01:10;14.90;99.90
15926;DHT22;8062;53.882;10.642;2023-05-23T06:02:30;14.90;99.90
15926;DHT22;8062;53.882;10.642;2023-05-23T06:03:50;14.90;99.90
15926;DHT22;8062;53.882;10.642;2023-05-23T06:05:10;14.90;99.90
15926;DHT22;8062;53.882;10.642;2023-05-23T06:06:35;14.90;99.90
15926;DHT22;8062;53.882;10.642;2023-05-23T06:07:55;14.80;99.90
15926;DHT22;8062;53.882;10.642;2023-05-23T06:09:15;14.80;99.90
15926;DHT22;8062;53.882;10.642;2023-05-23T06:10:37;14.70;99.90
15926;DHT22;8062;53.882;10.642;2023-05-23T06:11:58;14.80;99.90
15926;DHT22;8062;53.882;10.642;2023-05-23T06:13:18;14.80;99.90
15926;DHT22;8062;53.882;10.642;2023-05-23T06:14:42;14.80;99.90
15926;DHT22;8062;53.882;10.642;2023-05-23T06:16:01;14.80;99.90
15926;DHT22;8062;53.882;10.642;2023-05-23T06:17:21;14.80;99.90
15926;DHT22;8062;53.882;10.642;2023-05-23T06:18:41;14.80;99.90
15926;DHT22;8062;53.882;10.642;2023-05-23T06:20:01;14.80;99.90
15926;DHT22;8062;53.882;10.642;2023-05-23T06:21:21;14.80;99.90
15926;DHT22;8062;53.882;10.642;2023-05-23T06:22:42;14.80;99.90
15926;DHT22;8062;53.882;10.642;2023-05-23T06:24:02;14.80;99.90
15926;DHT22;8062;53.882;10.642;2023-05-23T06:25:22;14.90;99.90
15926;DHT22;8062;53.882;10.642;2023-05-23T06:26:41;14.90;99.90
15926;DHT22;8062;53.882;10.642;2023-05-23T06:28:01;14.90;99.90
15926;DHT22;8062;53.882;10.642;2023-05-23T06:29:22;14.90;99.90
15926;DHT22;8062;53.882;10.642;2023-05-23T06:30:42;15.00;99.90
15926;DHT22;8062;53.882;10.642;2023-05-23T06:32:02;15.00;99.90
15926;DHT22;8062;53.882;10.642;2023-05-23T06:33:21;15.00;99.90
15926;DHT22;8062;53.882;10.642;2023-05-23T06:34:41;15.10;99.90
15926;DHT22;8062;53.882;10.642;2023-05-23T06:36:01;15.10;99.90
15926;DHT22;8062;53.882;10.642;2023-05-23T06:37:21;15.10;99.90
15926;DHT22;8062;53.882;10.642;2023-05-23T06:38:40;15.10;99.90
15926;DHT22;8062;53.882;10.642;2023-05-23T06:40:00;15.20;99.90
15926;DHT22;8062;53.882;10.642;2023-05-23T06:41:19;15.10;99.90
15926;DHT22;8062;53.882;10.642;2023-05-23T06:42:40;15.20;99.90
15926;DHT22;8062;53.882;10.642;2023-05-23T06:44:11;15.20;99.90
15926;DHT22;8062;53.882;10.642;2023-05-23T06:45:33;15.20;99.90
15926;DHT22;8062;53.882;10.642;2023-05-23T06:46:54;15.20;99.90
15926;DHT22;8062;53.882;10.642;2023-05-23T06:48:16;15.20;99.90
15926;DHT22;8062;53.882;10.642;2023-05-23T06:49:37;15.10;99.90
15926;DHT22;8062;53.882;10.642;2023-05-23T06:50:57;15.10;99.90
15926;DHT22;8062;53.882;10.642;2023-05-23T06:52:17;15.00;99.90
15926;DHT22;8062;53.882;10.642;2023-05-23T06:53:36;15.00;99.90
15926;DHT22;8062;53.882;10.642;2023-05-23T06:54:56;14.90;99.90
15926;DHT22;8062;53.882;10.642;2023-05-23T06:56:16;14.90;99.90
15926;DHT22;8062;53.882;10.642;2023-05-23T06:57:45;14.80;99.90
15926;DHT22;8062;53.882;10.642;2023-05-23T06:59:06;14.80;99.90
15926;DHT22;8062;53.882;10.642;2023-05-23T07:00:25;14.80;99.90
15926;DHT22;8062;53.882;10.642;2023-05-23T07:01:56;14.80;99.90
15926;DHT22;8062;53.882;10.642;2023-05-23T07:03:17;14.80;99.90
15926;DHT22;8062;53.882;10.642;2023-05-23T07:04:37;14.80;99.90
15926;DHT22;8062;53.882;10.642;2023-05-23T07:06:02;14.80;99.90
15926;DHT22;8062;53.882;10.642;2023-05-23T07:07:23;14.80;99.90
15926;DHT22;8062;53.882;10.642;2023-05-23T07:08:42;14.80;99.90
15926;DHT22;8062;53.882;10.642;2023-05-23T07:10:03;14.80;99.90
15926;DHT22;8062;53.882;10.642;2023-05-23T07:11:23;14.80;99.90
15926;DHT22;8062;53.882;10.642;2023-05-23T07:12:48;14.80;99.90
15926;DHT22;8062;53.882;10.642;2023-05-23T07:14:09;14.80;99.90
15926;DHT22;8062;53.882;10.642;2023-05-23T07:15:32;14.80;99.90
15926;DHT22;8062;53.882;10.642;2023-05-23T07:16:59;14.80;99.90
15926;DHT22;8062;53.882;10.642;2023-05-23T07:18:19;14.80;99.90
15926;DHT22;8062;53.882;10.642;2023-05-23T07:19:39;14.80;99.90
15926;DHT22;8062;53.882;10.642;2023-05-23T07:20:58;14.80;99.90
15926;DHT22;8062;53.882;10.642;2023-05-23T07:22:18;14.80;99.90
15926;DHT22;8062;53.882;10.642;2023-05-23T07:23:39;14.80;99.90
15926;DHT22;8062;53.882;10.642;2023-05-23T07:24:58;14.90;99.90
15926;DHT22;8062;53.882;10.642;2023-05-23T07:26:23;14.90;99.90
15926;DHT22;8062;53.882;10.642;2023-05-23T07:27:47;14.90;99.90
15926;DHT22;8062;53.882;10.642;2023-05-23T07:29:07;14.90;99.90
15926;DHT22;8062;53.882;10.642;2023-05-23T07:30:27;14.90;99.90
15926;DHT22;8062;53.882;10.642;2023-05-23T07:31:46;15.00;99.90
15926;DHT22;8062;53.882;10.642;2023-05-23T07:33:07;15.00;99.90
15926;DHT22;8062;53.882;10.642;2023-05-23T07:34:27;15.00;99.90
15926;DHT22;8062;53.882;10.642;2023-05-23T07:35:49;14.90;99.90
15926;DHT22;8062;53.882;10.642;2023-05-23T07:37:09;14.90;99.90
15926;DHT22;8062;53.882;10.642;2023-05-23T07:38:35;14.80;99.90
15926;DHT22;8062;53.882;10.642;2023-05-23T07:39:54;14.70;99.90
15926;DHT22;8062;53.882;10.642;2023-05-23T07:41:14;14.50;99.90
15926;DHT22;8062;53.882;10.642;2023-05-23T07:42:34;14.40;99.90
15926;DHT22;8062;53.882;10.642;2023-05-23T07:43:54;14.30;99.90
15926;DHT22;8062;53.882;10.642;2023-05-23T07:45:14;14.30;99.90
15926;DHT22;8062;53.882;10.642;2023-05-23T07:46:36;14.30;99.90
15926;DHT22;8062;53.882;10.642;2023-05-23T07:47:55;14.30;99.90
15926;DHT22;8062;53.882;10.642;2023-05-23T07:49:15;14.30;99.90
15926;DHT22;8062;53.882;10.642;2023-05-23T07:50:35;14.30;99.90
15926;DHT22;8062;53.882;10.642;2023-05-23T07:51:55;14.20;99.90
15926;DHT22;8062;53.882;10.642;2023-05-23T07:53:14;14.10;99.90
15926;DHT22;8062;53.882;10.642;2023-05-23T07:54:34;14.10;99.90
15926;DHT22;8062;53.882;10.642;2023-05-23T07:55:55;14.00;99.90
15926;DHT22;8062;53.882;10.642;2023-05-23T07:57:17;14.10;99.90
15926;DHT22;8062;53.882;10.642;2023-05-23T07:58:37;14.10;99.90
15926;DHT22;8062;53.882;10.642;2023-05-23T07:59:57;14.10;99.90
15926;DHT22;8062;53.882;10.642;2023-05-23T08:01:17;14.10;99.90
15926;DHT22;8062;53.882;10.642;2023-05-23T08:02:57;14.00;99.90
15926;DHT22;8062;53.882;10.642;2023-05-23T08:04:23;14.00;99.90
15926;DHT22;8062;53.882;10.642;2023-05-23T08:05:46;14.00;99.90
15926;DHT22;8062;53.882;10.642;2023-05-23T08:07:05;14.10;99.90
15926;DHT22;8062;53.882;10.642;2023-05-23T08:08:43;14.10;99.90
15926;DHT22;8062;53.882;10.642;2023-05-23T08:10:03;14.10;99.90
15926;DHT22;8062;53.882;10.642;2023-05-23T08:11:23;14.20;99.90
15926;DHT22;8062;53.882;10.642;2023-05-23T08:12:45;14.20;99.90
15926;DHT22;8062;53.882;10.642;2023-05-23T08:14:08;14.30;99.90
15926;DHT22;8062;53.882;10.642;2023-05-23T08:15:31;14.30;99.90
15926;DHT22;8062;53.882;10.642;2023-05-23T08:17:00;14.40;99.90
15926;DHT22;8062;53.882;10.642;2023-05-23T08:18:20;14.60;99.90
15926;DHT22;8062;53.882;10.642;2023-05-23T08:19:40;14.60;99.90
15926;DHT22;8062;53.882;10.642;2023-05-23T08:21:00;14.70;99.90
15926;DHT22;8062;53.882;10.642;2023-05-23T08:22:21;14.80;99.90
15926;DHT22;8062;53.882;10.642;2023-05-23T08:23:41;14.80;99.90
15926;DHT22;8062;53.882;10.642;2023-05-23T08:25:00;14.80;99.90
15926;DHT22;8062;53.882;10.642;2023-05-23T08:26:22;14.90;99.90
15926;DHT22;8062;53.882;10.642;2023-05-23T08:27:43;14.90;99.90
15926;DHT22;8062;53.882;10.642;2023-05-23T08:29:26;15.00;99.90
15926;DHT22;8062;53.882;10.642;2023-05-23T08:30:46;15.10;99.90
15926;DHT22;8062;53.882;10.642;2023-05-23T08:32:07;15.10;99.90
15926;DHT22;8062;53.882;10.642;2023-05-23T08:33:27;15.20;99.90
15926;DHT22;8062;53.882;10.642;2023-05-23T08:34:50;15.10;99.90
15926;DHT22;8062;53.882;10.642;2023-05-23T08:36:10;15.00;99.90
15926;DHT22;8062;53.882;10.642;2023-05-23T08:37:30;15.00;99.90